Cabo Da Praia — CUSS7 — position and weather

sailwx.info

Track history (hours):
 
Tides and Currents Weather Stations Pressure Air Temp Water Temp Dewpoint Dewpoint Depression Visibility Wind Speed Wind Dir Waves Ship Positions

Cabo Da Praia

Last reported at 2017-Nov-18 04:21 UTC. Time now 2017-Nov-23 18:52 UTC.
Position N 39°56' W 009°10'.

Length 25 m.

MMSI: 204851000.

Date/timePositionNaut miles runAvg speedWind from/ knotsBaromVisibWave heightAir tempDewpointWater temp
2017-Nov-18 04:21N 39°56' W 009°10'4 8.1
2017-Nov-18 03:55N 39°54' W 009°13'4 8.4
2017-Nov-18 03:30N 39°51' W 009°16'12 7.6
2017-Nov-18 01:56N 39°43' W 009°27'3 7.4
2017-Nov-18 01:30N 39°41' W 009°30'4 7.4
2017-Nov-18 00:58N 39°38' W 009°33'3 7.2
2017-Nov-18 00:30N 39°35' W 009°36'4 7.4
2017-Nov-17 23:59N 39°32' W 009°39'4 8.2
2017-Nov-17 23:26N 39°28' W 009°42'4 8.3
2017-Nov-17 23:00N 39°25' W 009°45'5 8.0
2017-Nov-17 22:26N 39°21' W 009°48'7 8.0
2017-Nov-17 21:37N 39°16' W 009°52'1 7.9
2017-Nov-17 21:28N 39°15' W 009°53'4 7.8
2017-Nov-17 20:59N 39°12' W 009°55'4 8.6
2017-Nov-17 20:30N 39°08' W 009°58'4 8.6
2017-Nov-17 20:00N 39°05' W 010°01'4 8.2
2017-Nov-17 19:30N 39°01' W 010°04'11 8.4
2017-Nov-17 18:11N 38°52' W 010°12'2 8.7
2017-Nov-17 18:01N 38°50' W 010°13'  
Track history (hours):
 
Tides and Currents Weather Stations Pressure Air Temp Water Temp Dewpoint Dewpoint Depression Visibility Wind Speed Wind Dir Waves Ship Positions

Cabo Da Praia

Last reported at 2017-Nov-18 04:21 UTC. Time now 2017-Nov-23 18:52 UTC.
Position N 39°56' W 009°10'.

Length 25 m.

MMSI: 204851000.

Date/timePositionNaut miles runAvg speedWind from/ knotsBaromVisibWave heightAir tempDewpointWater temp
2017-Nov-18 04:21N 39°56' W 009°10'4 8.1
2017-Nov-18 03:55N 39°54' W 009°13'4 8.4
2017-Nov-18 03:30N 39°51' W 009°16'12 7.6
2017-Nov-18 01:56N 39°43' W 009°27'3 7.4
2017-Nov-18 01:30N 39°41' W 009°30'4 7.4
2017-Nov-18 00:58N 39°38' W 009°33'3 7.2
2017-Nov-18 00:30N 39°35' W 009°36'4 7.4
2017-Nov-17 23:59N 39°32' W 009°39'4 8.2
2017-Nov-17 23:26N 39°28' W 009°42'4 8.3
2017-Nov-17 23:00N 39°25' W 009°45'5 8.0
2017-Nov-17 22:26N 39°21' W 009°48'7 8.0
2017-Nov-17 21:37N 39°16' W 009°52'1 7.9
2017-Nov-17 21:28N 39°15' W 009°53'4 7.8
2017-Nov-17 20:59N 39°12' W 009°55'4 8.6
2017-Nov-17 20:30N 39°08' W 009°58'4 8.6
2017-Nov-17 20:00N 39°05' W 010°01'4 8.2
2017-Nov-17 19:30N 39°01' W 010°04'11 8.4
2017-Nov-17 18:11N 38°52' W 010°12'2 8.7
2017-Nov-17 18:01N 38°50' W 010°13'  

Dump ship's entire track history